WetterOnline ( https://www.wetteronline.de )

Wetter aktuell Feldberger Seenlandschaft

Aktuelles Wetter: Feldberg (115m)

6-stündlich | Neueste Meldungen
Ortszeit Temperatur Wetter
Mo, 22.04. 8:00 8.5° C wolkenlos
Mo, 22.04. 2:00 6.5° C wolkenlos
So, 21.04. 20:00 15.7° C fast wolkenlos
So, 21.04. 14:00 18.0° C wolkenlos
So, 21.04. 8:00 9.7° C leicht bewölkt
So, 21.04. 2:00 7.0° C fast wolkenlos
Sa, 20.04. 20:00 13.1° C wolkenlos
Sa, 20.04. 14:00 17.0° C fast wolkenlos
Ortszeit Temperatur Wetter
Mo, 22.04. 10:00 11.8° C fast wolkenlos
Mo, 22.04. 9:50 11.8° C fast wolkenlos
Mo, 22.04. 9:40 11.5° C wolkenlos
Mo, 22.04. 9:30 10.8° C fast wolkenlos
Mo, 22.04. 9:20 10.8° C fast wolkenlos
Mo, 22.04. 9:10 10.7° C fast wolkenlos
Mo, 22.04. 9:00 9.8° C leicht bewölkt
Mo, 22.04. 8:30 9.2° C leicht bewölkt
Mo, 22.04. 8:00 8.5° C wolkenlos
Mo, 22.04. 7:30 7.8° C fast wolkenlos
Mo, 22.04. 7:00 7.2° C leicht bewölkt
Ortszeit Relative Feuchte Sichtweite
Mo, 22.04. 8:00 57% 24 km
Mo, 22.04. 2:00 64% 35 km
So, 21.04. 20:00 36% 50 km
So, 21.04. 14:00 29% 30 km
So, 21.04. 8:00 52% 35 km
So, 21.04. 2:00 52% 60 km
Sa, 20.04. 20:00 43% 55 km
Sa, 20.04. 14:00 29% 30 km
Ortszeit Relative Feuchte Sichtweite
Mo, 22.04. 10:00 43% 25 km
Mo, 22.04. 9:50 43% -
Mo, 22.04. 9:40 49% -
Mo, 22.04. 9:30 51% 23 km
Mo, 22.04. 9:20 51% -
Mo, 22.04. 9:10 51% -
Mo, 22.04. 9:00 53% 27 km
Mo, 22.04. 8:30 55% 28 km
Mo, 22.04. 8:00 57% 24 km
Mo, 22.04. 7:30 57% 28 km
Mo, 22.04. 7:00 58% 23 km
Ortszeit Niederschlagsmenge Niederschlagsart
Mo, 22.04. 8:00 0.0 l/m2 in 12 Std. -
Mo, 22.04. 2:00 0.0 l/m2 in 6 Std. -
So, 21.04. 20:00 0.0 l/m2 in 12 Std. -
So, 21.04. 14:00 0.0 l/m2 in 6 Std. -
So, 21.04. 8:00 0.0 l/m2 in 12 Std. -
So, 21.04. 2:00 0.0 l/m2 in 6 Std. -
Sa, 20.04. 20:00 0.0 l/m2 in 12 Std. -
Sa, 20.04. 14:00 0.0 l/m2 in 6 Std. -
Ortszeit Niederschlagsmenge Niederschlagsart
Mo, 22.04. 10:00 0.0 l/m2 in 1 Std. -
Mo, 22.04. 9:50 keine Meldung -
Mo, 22.04. 9:40 keine Meldung -
Mo, 22.04. 9:30 0.0 l/m2 in 1 Std. -
Mo, 22.04. 9:20 keine Meldung -
Mo, 22.04. 9:10 keine Meldung -
Mo, 22.04. 9:00 0.0 l/m2 in 1 Std. -
Mo, 22.04. 8:30 0.0 l/m2 in 1 Std. -
Mo, 22.04. 8:00 0.0 l/m2 in 1 Std. -
Mo, 22.04. 7:30 0.0 l/m2 in 1 Std. -
Mo, 22.04. 7:00 0.0 l/m2 in 1 Std. -
Ortszeit Stärke Spitze Richtung
km/h Bft. km/h Grad Sektor
Mo, 22.04. 8:00 14 3 18 100° O
Mo, 22.04. 2:00 4 1 18 60° NO
So, 21.04. 20:00 14 3 25 60° NO
So, 21.04. 14:00 9 2 20 70° O
So, 21.04. 8:00 4 1 11 110° O
So, 21.04. 2:00 9 2 24 60° NO
Sa, 20.04. 20:00 14 3 32 30° NO
Sa, 20.04. 14:00 14 3 25 60° NO
Ortszeit Stärke Spitze Richtung
km/h Bft. km/h Grad Sektor
Mo, 22.04. 10:00 19 3 31 110° O
Mo, 22.04. 9:50 19 3 - 110° O
Mo, 22.04. 9:40 17 3 - 120° SO
Mo, 22.04. 9:30 17 3 26 110° O
Mo, 22.04. 9:20 17 3 - 110° O
Mo, 22.04. 9:10 17 3 - 110° O
Mo, 22.04. 9:00 17 3 24 110° O
Mo, 22.04. 8:30 18 3 22 100° O
Mo, 22.04. 8:00 14 3 18 100° O
Mo, 22.04. 7:30 11 2 19 80° O
Mo, 22.04. 7:00 11 2 18 90° O
Ortszeit Untergrenze Bedeckung Gattung
total tief tief mittel hoch
Mo, 22.04. 8:00 - 0/8 0/8 - - -
Mo, 22.04. 2:00 7800 m 0/8 0/8 - - -
So, 21.04. 20:00 8400 m 1/8 0/8 - - -
So, 21.04. 14:00 - 0/8 0/8 - - -
So, 21.04. 8:00 7500 m 5/8 0/8 - - -
So, 21.04. 2:00 8400 m 1/8 0/8 - - -
Sa, 20.04. 20:00 - 0/8 0/8 - - -
Sa, 20.04. 14:00 8700 m 1/8 0/8 - - -
Ortszeit Bedeckungsgrad in Achtel und Wolkenuntergrenze
Mo, 22.04. 10:00 1(8400m)
Mo, 22.04. 9:50 1(8400m)
Mo, 22.04. 9:40 keine Wolken
Mo, 22.04. 9:30 1(8100m) 2(8100m)
Mo, 22.04. 9:20 1(8100m)
Mo, 22.04. 9:10 1(8100m)
Mo, 22.04. 9:00 4(8100m)
Mo, 22.04. 8:30 3(8400m)
Mo, 22.04. 8:00 keine Wolken
Mo, 22.04. 7:30 1(8700m)
Mo, 22.04. 7:00 3(8400m)
Ortszeit Luftdruck NN (hPa) Tendenz (hPa in 3 Std.)
Mo, 22.04. 8:00 1020 + 0,1
Mo, 22.04. 2:00 1021 - 0,7
So, 21.04. 20:00 1021 - 1,0
So, 21.04. 14:00 1024 - 2,0
So, 21.04. 8:00 1027 - 0,6
So, 21.04. 2:00 1029 - 1,2
Sa, 20.04. 20:00 1029 - 0,6
Sa, 20.04. 14:00 1032 - 1,0
Ortszeit Luftdruck NN (hPa) Tendenz (hPa in 3 Std.)
Mo, 22.04. 10:00 1020 + 0,6
Mo, 22.04. 9:50 1020 keine Meldung
Mo, 22.04. 9:40 1020 keine Meldung
Mo, 22.04. 9:30 1020 + 0,7
Mo, 22.04. 9:20 1020 keine Meldung
Mo, 22.04. 9:10 1020 keine Meldung
Mo, 22.04. 9:00 1021 + 0,8
Mo, 22.04. 8:30 1020 + 0,5
Mo, 22.04. 8:00 1020 + 0,1
Mo, 22.04. 7:30 1020 - 0,2
Mo, 22.04. 7:00 1020 - 0,5
Ortszeit Schneehöhe (cm)
Mo, 22.04. 8:00 0
Mo, 22.04. 2:00 0
So, 21.04. 20:00 0
So, 21.04. 14:00 0
So, 21.04. 8:00 0
So, 21.04. 2:00 0
Sa, 20.04. 20:00 0
Sa, 20.04. 14:00 0
Ortszeit Schneehöhe (cm)
Mo, 22.04. 10:00 0
Mo, 22.04. 9:50 0
Mo, 22.04. 9:40 0
Mo, 22.04. 9:30 0
Mo, 22.04. 9:20 0
Mo, 22.04. 9:10 0
Mo, 22.04. 9:00 0
Mo, 22.04. 8:30 0
Mo, 22.04. 8:00 0
Mo, 22.04. 7:30 0
Mo, 22.04. 7:00 0
Link zu dieser Seite / Seite empfehlen

Das Wetter in ...